Aviation Digital Data Service (ADDS)

Output produced by METARs form (0137 UTC 23 October 2014)
found at http://www.aviationweather.gov/adds/metars/
 
KLNS 230053Z 33012G21KT 10SM SCT031 BKN048 OVC075 11/06 A2992 RMK AO2 SLP133 T01110061
KLNS 230044Z 34013G20KT 10SM SCT031 BKN048 OVC065 12/07 A2993 RMK AO2 T01170067
KLNS 222353Z 34012KT 10SM OVC027 12/07 A2993 RMK AO2 SLP135 T01170067 10128 20117 53004
KLNS 222253Z 33008G20KT 10SM OVC024 12/07 A2993 RMK AO2 PK WND 36027/2155 SLP134 T01170072
KLNS 222153Z 34016G24KT 10SM OVC025 12/07 A2992 RMK AO2 SLP132 T01220072
KLNS 222053Z 35016G25KT 10SM BKN027 OVC037 12/08 A2992 RMK AO2 SLP131 T01220078 56003
KLNS 221953Z 35014G22KT 10SM OVC030 12/08 A2992 RMK AO2 SLP132 T01220083
KLNS 221853Z 35012G20KT 10SM OVC024 12/09 A2992 RMK AO2 SLP131 T01220089
KLNS 221753Z 36014KT 10SM OVC026 12/09 A2993 RMK AO2 RAE44 SLP134 P0000 60006 T01220094 10122 20117 58006
KLNS 221653Z 36011KT 10SM -RA OVC023 12/09 A2994 RMK AO2 RAE12B44 SLP137 P0000 T01220094
KLNS 221553Z 36010KT 10SM -RA OVC020 12/10 A2995 RMK AO2 SLP140 P0002 T01220100
KLNS 221453Z 01008KT 10SM -RA OVC020 12/10 A2995 RMK AO2 SLP140 P0000 60004 T01220100 51011
KLNS 221353Z 35008KT 10SM -RA OVC021 12/10 A2994 RMK AO2 SLP137 P0002 T01170100
KLNS 221253Z 36009KT 5SM -RA BR BKN023 OVC049 12/09 A2993 RMK AO2 RAB20 SLP136 P0002 T01170094
KLNS 221153Z 36009KT 10SM OVC025 12/09 A2991 RMK AO2 RAB21E40 SLP129 P0001 60001 70001 T01220094 10128 20117 51010
KLNS 221053Z 36008KT 10SM OVC023 12/09 A2990 RMK AO2 SLP124 T01220089
KLNS 220953Z 01009KT 10SM OVC024 12/09 A2990 RMK AO2 SLP123 T01220089
KLNS 220925Z AUTO 02007KT 10SM BKN021 BKN041 OVC085 12/09 A2989 RMK AO2 T01220089
KLNS 220853Z AUTO 02010KT 10SM FEW039 OVC070 12/09 A2988 RMK AO2 SLP118 60000 T01220089 53001
KLNS 220753Z AUTO 02010KT 10SM SCT026 SCT055 OVC085 12/09 A2987 RMK AO2 RAE20 SLP116 P0000 T01170094
KLNS 220653Z AUTO 04009KT 8SM -RA OVC065 12/09 A2988 RMK AO2 RAB0554 SLP118 P0000 T01170094
KLNS 220605Z AUTO 01007KT 10SM -RA SCT021 BKN031 OVC085 12/09 A2988 RMK AO2 RAB0554 P0000 T01220094
KLNS 220553Z AUTO 03009KT 10SM BKN021 BKN029 OVC036 13/09 A2988 RMK AO2 LTG DSNT SE SLP117 T01280094 10139 20117 58010
KLNS 220453Z AUTO 34004KT 10SM FEW021 BKN026 OVC042 12/09 A2989 RMK AO2 LTG DSNT SE SLP121 T01220089 401780089
KLNS 220353Z AUTO 27004KT 10SM FEW120 12/09 A2990 RMK AO2 SLP125 T01170089
KLNS 220253Z AUTO 28003KT 10SM SCT065 BKN110 12/09 A2991 RMK AO2 SLP127 T01220094 51016
KLNS 220153Z 28006KT 10SM FEW041 BKN048 OVC100 13/09 A2990 RMK AO2 SLP126 T01280094
KLNS 220053Z 32005KT 10SM BKN055 14/09 A2989 RMK AO2 SLP120 T01390089
KLNS 212353Z 36006KT 10SM CLR 14/09 A2986 RMK AO2 SLP112 T01390089 10178 20133 51014
KLNS 212253Z 35004KT 7SM BKN090 13/09 A2985 RMK AO2 SLP110 T01330094
KLNS 212153Z 33004KT 10SM OVC090 15/09 A2984 RMK AO2 SLP104 T01500089
KLNS 212053Z 30004KT 10SM CLR 17/08 A2982 RMK AO2 SLP097 T01670083 55002
KLNS 211953Z 00000KT 10SM CLR 17/09 A2981 RMK AO2 SLP095 T01720089
KLNS 211853Z 33005KT 10SM OVC055 17/09 A2983 RMK AO2 SLP100 T01670089
KLNS 211753Z 34006KT 10SM SCT036 BKN050 17/09 A2983 RMK AO2 SLP100 T01670094 10172 20089 58016
KLNS 211653Z 30006KT 10SM FEW027 16/08 A2984 RMK AO2 SLP105 T01610083
KLNS 211553Z 00000KT 10SM FEW050 16/11 A2986 RMK AO2 SLP112 T01560106
KLNS 211453Z 00000KT 10SM SCT090 14/10 A2987 RMK AO2 SLP116 T01390100 50002
KLNS 211353Z 00000KT 10SM SCT080 13/11 A2988 RMK AO2 SLP117 T01330106